createdAt,value
2022-10-29T00:01:19.944Z,6.53
2022-10-29T00:03:49.707Z,6.03
2022-10-29T00:06:16.635Z,6.50
2022-10-29T00:08:43.530Z,5.80
2022-10-29T00:11:12.840Z,5.80
2022-10-29T00:13:40.395Z,5.82
2022-10-29T00:16:08.852Z,5.70
2022-10-29T00:18:36.244Z,6.13
2022-10-29T00:21:06.479Z,5.57
2022-10-29T00:23:33.754Z,6.47
2022-10-29T00:26:01.638Z,6.40
2022-10-29T00:28:29.729Z,6.30
2022-10-29T00:30:56.663Z,6.17
2022-10-29T00:33:24.191Z,5.80
2022-10-29T00:35:57.841Z,6.40
2022-10-29T00:38:26.719Z,6.30
2022-10-29T00:40:53.861Z,6.13
2022-10-29T00:43:22.686Z,7.23
2022-10-29T00:45:52.937Z,6.80
2022-10-29T00:48:21.174Z,7.40
2022-10-29T00:50:48.962Z,6.47
2022-10-29T00:53:19.660Z,6.72
2022-10-29T00:55:47.925Z,6.50
2022-10-29T00:58:15.420Z,7.05
2022-10-29T01:00:43.662Z,6.28
2022-10-29T01:03:11.069Z,6.53
2022-10-29T01:05:38.403Z,7.60
2022-10-29T01:08:06.018Z,5.80
2022-10-29T01:10:41.180Z,6.45
2022-10-29T01:13:23.740Z,5.93
2022-10-29T01:15:58.391Z,6.15
2022-10-29T01:18:35.851Z,6.68
2022-10-29T01:21:34.396Z,5.70
2022-10-29T01:24:37.020Z,6.45
2022-10-29T01:27:55.847Z,6.35
2022-10-29T01:30:56.222Z,5.90
2022-10-29T01:33:33.252Z,6.40
2022-10-29T01:36:07.913Z,5.30
2022-10-29T01:38:38.307Z,6.72
2022-10-29T01:41:12.695Z,6.55
2022-10-29T01:43:47.398Z,6.30
2022-10-29T01:46:19.016Z,6.18
2022-10-29T01:48:52.849Z,6.07
2022-10-29T01:51:22.571Z,6.63
2022-10-29T01:53:51.145Z,7.25
2022-10-29T01:56:18.307Z,7.07
2022-10-29T01:58:48.667Z,6.88
2022-10-29T02:01:32.629Z,7.05
2022-10-29T02:04:17.367Z,6.65
2022-10-29T02:06:56.316Z,7.35
2022-10-29T02:09:28.054Z,7.32
2022-10-29T02:12:02.513Z,7.93
2022-10-29T02:14:33.851Z,7.40
2022-10-29T02:17:02.025Z,7.22
2022-10-29T02:19:31.597Z,7.22
2022-10-29T02:21:58.501Z,7.38
2022-10-29T02:24:26.012Z,7.10
2022-10-29T02:26:52.902Z,7.38
2022-10-29T02:29:20.340Z,7.80
2022-10-29T02:31:47.185Z,7.15
2022-10-29T02:34:14.453Z,7.72
2022-10-29T02:36:42.812Z,7.45
2022-10-29T02:39:09.635Z,7.20
2022-10-29T02:41:36.525Z,8.05
2022-10-29T02:44:03.911Z,6.90
2022-10-29T02:46:31.416Z,6.88
2022-10-29T02:48:58.590Z,7.25
2022-10-29T02:51:25.386Z,7.75
2022-10-29T02:53:54.167Z,7.80
2022-10-29T02:56:20.999Z,7.78
2022-10-29T02:58:47.995Z,8.00
2022-10-29T03:01:14.920Z,7.67
2022-10-29T03:03:42.288Z,7.13
2022-10-29T03:06:13.207Z,8.57
2022-10-29T03:08:40.380Z,7.40
2022-10-29T03:11:08.937Z,8.47
2022-10-29T03:13:39.136Z,8.33
2022-10-29T03:16:06.238Z,8.47
2022-10-29T03:18:33.295Z,8.57
2022-10-29T03:21:00.161Z,8.33
2022-10-29T03:23:27.299Z,8.33
2022-10-29T03:25:56.119Z,8.13
2022-10-29T03:28:27.988Z,8.40
2022-10-29T03:30:55.035Z,8.47
2022-10-29T03:33:22.212Z,8.80
2022-10-29T03:35:49.109Z,8.07
2022-10-29T03:38:16.301Z,7.77
2022-10-29T03:40:43.735Z,7.97
2022-10-29T03:43:10.666Z,8.37
2022-10-29T03:45:38.931Z,8.33
2022-10-29T03:48:06.593Z,7.63
2022-10-29T03:50:33.428Z,8.33
2022-10-29T03:53:00.791Z,7.60
2022-10-29T03:55:29.150Z,8.63
2022-10-29T03:57:56.612Z,8.10
2022-10-29T04:00:23.863Z,7.77
2022-10-29T04:02:52.302Z,7.87
2022-10-29T04:05:19.189Z,8.03
2022-10-29T04:07:46.322Z,8.30
2022-10-29T04:10:13.182Z,8.37
2022-10-29T04:12:45.000Z,8.57
2022-10-29T04:15:11.872Z,7.80
2022-10-29T04:17:39.152Z,7.70
2022-10-29T04:20:19.015Z,7.57
2022-10-29T04:24:12.092Z,7.47
2022-10-29T04:28:45.437Z,7.40
2022-10-29T04:31:12.772Z,7.23
2022-10-29T04:33:40.175Z,8.17
2022-10-29T04:36:09.460Z,8.60
2022-10-29T04:38:36.712Z,7.60
2022-10-29T04:41:04.810Z,7.03
2022-10-29T04:43:33.225Z,7.57
2022-10-29T04:46:00.327Z,7.53
2022-10-29T04:48:28.337Z,7.67
2022-10-29T04:50:55.247Z,7.97
2022-10-29T04:53:23.903Z,8.10
2022-10-29T04:55:50.834Z,8.10
2022-10-29T04:58:19.739Z,7.67
2022-10-29T05:00:46.904Z,7.43
2022-10-29T05:03:14.308Z,7.97
2022-10-29T05:05:41.850Z,7.40
2022-10-29T05:08:10.414Z,7.47
2022-10-29T05:10:39.821Z,7.57
2022-10-29T05:13:10.580Z,7.63
2022-10-29T05:15:38.488Z,8.27
2022-10-29T05:18:06.860Z,8.57
2022-10-29T05:20:33.822Z,8.17
2022-10-29T05:23:01.839Z,8.17
2022-10-29T05:25:29.522Z,9.03
2022-10-29T05:28:03.408Z,10.07
2022-10-29T05:30:30.857Z,9.30
2022-10-29T05:32:58.695Z,9.80
2022-10-29T05:35:26.262Z,10.67
2022-10-29T05:37:53.703Z,10.50
2022-10-29T05:40:20.906Z,10.40
2022-10-29T05:42:48.233Z,10.47
2022-10-29T05:45:17.095Z,11.17
2022-10-29T05:47:44.712Z,10.50
2022-10-29T05:50:12.469Z,10.43
2022-10-29T05:52:40.060Z,10.40
2022-10-29T05:55:07.998Z,10.53
2022-10-29T05:57:35.199Z,9.23
2022-10-29T06:00:02.100Z,9.40
2022-10-29T06:02:30.820Z,9.63
2022-10-29T06:04:57.749Z,9.63
2022-10-29T06:07:24.562Z,10.17
2022-10-29T06:09:51.434Z,9.83
2022-10-29T06:12:18.553Z,10.07
2022-10-29T06:14:45.419Z,10.90
2022-10-29T06:17:12.276Z,9.57
2022-10-29T06:22:12.629Z,10.57
2022-10-29T06:24:39.491Z,10.70
2022-10-29T06:27:06.437Z,10.40
2022-10-29T06:29:33.339Z,10.97
2022-10-29T06:32:00.695Z,11.03
2022-10-29T06:34:27.958Z,11.27
2022-10-29T06:36:57.548Z,11.80
2022-10-29T06:39:24.374Z,11.27
2022-10-29T06:41:51.659Z,11.20
2022-10-29T06:44:18.497Z,11.97
2022-10-29T06:46:45.615Z,11.67
2022-10-29T06:49:12.457Z,10.67
2022-10-29T06:51:39.325Z,11.00
2022-10-29T06:54:07.726Z,10.67
2022-10-29T06:56:34.669Z,10.97
2022-10-29T06:59:01.617Z,10.97
2022-10-29T07:01:31.798Z,11.13
2022-10-29T07:03:58.931Z,10.63
2022-10-29T07:06:26.597Z,10.50
2022-10-29T07:08:53.518Z,10.40
2022-10-29T07:11:22.044Z,10.57
2022-10-29T07:13:48.908Z,10.63
2022-10-29T07:16:15.780Z,11.57
2022-10-29T07:18:42.663Z,12.37
2022-10-29T07:21:10.239Z,11.60
2022-10-29T07:23:37.148Z,11.83
2022-10-29T07:26:04.465Z,13.60
2022-10-29T07:28:32.750Z,14.40
2022-10-29T07:31:01.367Z,12.97
2022-10-29T07:33:29.887Z,13.70
2022-10-29T07:35:58.719Z,11.93
2022-10-29T07:38:26.290Z,11.43
2022-10-29T07:40:54.478Z,10.00
2022-10-29T07:43:22.478Z,9.77
2022-10-29T07:45:51.866Z,9.70
2022-10-29T07:48:19.988Z,9.30
2022-10-29T07:50:47.537Z,9.30
2022-10-29T07:53:14.470Z,9.97
2022-10-29T07:55:41.805Z,9.10
2022-10-29T07:58:11.874Z,8.93
2022-10-29T08:00:40.784Z,9.77
2022-10-29T08:03:11.523Z,9.10
2022-10-29T08:05:39.354Z,9.30
2022-10-29T08:08:06.795Z,9.37
2022-10-29T08:10:36.012Z,9.00
2022-10-29T08:13:05.435Z,9.23
2022-10-29T08:15:34.727Z,8.40
2022-10-29T08:18:02.395Z,8.00
2022-10-29T08:20:31.564Z,8.77
2022-10-29T08:23:01.709Z,9.00
2022-10-29T08:25:29.557Z,9.17
2022-10-29T08:28:01.461Z,11.90
2022-10-29T08:30:29.270Z,11.53
2022-10-29T08:32:56.623Z,10.43
2022-10-29T08:35:24.200Z,13.97
2022-10-29T08:37:52.398Z,10.10
2022-10-29T08:40:28.531Z,8.38
2022-10-29T08:43:25.647Z,8.77
2022-10-29T08:45:55.170Z,8.63
2022-10-29T08:48:44.341Z,8.57
2022-10-29T08:51:17.143Z,9.33
2022-10-29T08:53:54.270Z,8.82
2022-10-29T08:56:36.062Z,8.67
2022-10-29T08:59:07.039Z,9.37
2022-10-29T09:01:35.719Z,10.23
2022-10-29T09:04:05.609Z,9.25
2022-10-29T09:06:39.393Z,8.60
2022-10-29T09:09:29.587Z,8.45
2022-10-29T09:12:29.627Z,9.30
2022-10-29T09:15:38.391Z,8.60
2022-10-29T09:18:26.990Z,8.98
2022-10-29T09:21:01.605Z,10.35
2022-10-29T09:23:47.649Z,9.52
2022-10-29T09:26:20.206Z,8.32
2022-10-29T09:28:59.755Z,8.73
2022-10-29T09:31:34.959Z,8.38
2022-10-29T09:34:09.325Z,8.18
2022-10-29T09:36:37.075Z,8.10
2022-10-29T09:39:10.396Z,7.80
2022-10-29T09:41:39.453Z,7.97
2022-10-29T09:44:11.731Z,7.78
2022-10-29T09:46:49.683Z,8.10
2022-10-29T09:49:34.976Z,7.43
2022-10-29T09:52:06.936Z,7.82
2022-10-29T09:54:34.686Z,7.00
2022-10-29T09:57:04.750Z,7.63
2022-10-29T09:59:35.902Z,7.63
2022-10-29T10:02:05.053Z,7.03
2022-10-29T10:04:37.758Z,8.00
2022-10-29T10:07:08.577Z,7.50
2022-10-29T10:09:52.607Z,7.43
2022-10-29T10:12:24.119Z,7.82
2022-10-29T10:15:03.710Z,7.63
2022-10-29T10:17:57.638Z,7.95
2022-10-29T10:20:37.609Z,7.78
2022-10-29T10:23:21.602Z,8.27
2022-10-29T10:25:49.694Z,8.00
2022-10-29T10:28:21.139Z,10.80
2022-10-29T10:31:07.577Z,9.52
2022-10-29T10:33:37.593Z,9.68
2022-10-29T10:36:07.007Z,8.88
2022-10-29T10:38:44.977Z,8.23
2022-10-29T10:41:13.930Z,8.45
2022-10-29T10:43:45.365Z,8.07
2022-10-29T10:46:18.494Z,8.65
2022-10-29T10:48:56.553Z,10.73
2022-10-29T10:51:27.383Z,8.88
2022-10-29T10:53:54.633Z,8.65
2022-10-29T10:56:22.795Z,7.93
2022-10-29T10:58:58.730Z,8.10
2022-10-29T11:01:31.419Z,8.00
2022-10-29T11:04:10.903Z,8.00
2022-10-29T11:06:41.247Z,7.20
2022-10-29T11:09:17.203Z,8.70
2022-10-29T11:11:58.974Z,7.78
2022-10-29T11:14:32.827Z,8.00
2022-10-29T11:17:02.922Z,8.55
2022-10-29T11:19:36.785Z,9.02
2022-10-29T11:22:12.763Z,8.65
2022-10-29T11:24:47.369Z,9.27
2022-10-29T11:27:29.887Z,9.02
2022-10-29T11:30:04.041Z,11.82
2022-10-29T11:32:43.568Z,10.40
2022-10-29T11:35:13.912Z,8.85
2022-10-29T11:37:47.920Z,9.23
2022-10-29T11:40:18.442Z,8.38
2022-10-29T11:42:45.458Z,9.90
2022-10-29T11:45:17.359Z,10.02
2022-10-29T11:48:00.804Z,9.20
2022-10-29T11:50:37.886Z,9.40
2022-10-29T11:53:18.991Z,9.38
2022-10-29T11:55:55.378Z,10.13
2022-10-29T11:58:38.184Z,10.27
2022-10-29T12:01:18.425Z,8.23
2022-10-29T12:04:06.006Z,9.95
2022-10-29T12:06:40.197Z,8.15
2022-10-29T12:09:44.571Z,7.75
2022-10-29T12:12:19.359Z,8.35
2022-10-29T12:14:52.973Z,8.43
2022-10-29T12:17:29.428Z,7.82
2022-10-29T12:20:01.181Z,7.72
2022-10-29T12:22:36.265Z,7.10
2022-10-29T12:25:15.334Z,7.28
2022-10-29T12:27:47.533Z,7.78
2022-10-29T12:30:17.908Z,7.00
2022-10-29T12:32:57.228Z,7.57
2022-10-29T12:35:29.533Z,7.00
2022-10-29T12:38:13.615Z,7.35
2022-10-29T12:40:43.915Z,14.40
2022-10-29T12:43:19.385Z,7.35
2022-10-29T12:48:53.077Z,7.50
2022-10-29T12:51:24.295Z,6.82
2022-10-29T12:54:14.668Z,7.10
2022-10-29T12:56:45.049Z,7.57
2022-10-29T12:59:35.434Z,6.97
2022-10-29T13:02:30.216Z,6.45
2022-10-29T13:05:17.401Z,7.03
2022-10-29T13:08:27.274Z,7.45
2022-10-29T13:10:56.406Z,7.25
2022-10-29T13:13:42.451Z,7.05
2022-10-29T13:16:15.603Z,7.03
2022-10-29T13:18:51.695Z,7.00
2022-10-29T13:22:01.867Z,7.95
2022-10-29T13:24:30.312Z,9.27
2022-10-29T13:27:03.353Z,7.38
2022-10-29T13:30:09.274Z,7.20
2022-10-29T13:32:37.777Z,6.60
2022-10-29T13:35:26.727Z,7.40
2022-10-29T13:37:56.054Z,6.18
2022-10-29T13:41:01.849Z,6.30
2022-10-29T13:43:30.866Z,6.38
2022-10-29T13:46:19.028Z,8.40
2022-10-29T13:48:47.702Z,6.93
2022-10-29T13:51:19.325Z,6.93
2022-10-29T13:53:54.820Z,6.43
2022-10-29T13:56:28.628Z,6.40
2022-10-29T13:58:57.650Z,12.02
2022-10-29T14:01:25.110Z,7.65
2022-10-29T14:04:00.697Z,6.57
2022-10-29T14:06:32.990Z,7.32
2022-10-29T14:09:12.352Z,5.05
2022-10-29T14:11:42.987Z,4.63
2022-10-29T14:14:24.483Z,5.32
2022-10-29T14:17:09.862Z,4.68
2022-10-29T14:19:37.194Z,4.55
2022-10-29T14:22:33.677Z,5.03
2022-10-29T14:25:04.429Z,4.90
2022-10-29T14:27:31.694Z,4.47
2022-10-29T14:30:18.791Z,5.38
2022-10-29T14:32:46.828Z,4.60
2022-10-29T14:35:20.268Z,4.93
2022-10-29T14:37:49.365Z,4.65
2022-10-29T14:40:21.168Z,4.97
2022-10-29T14:42:54.243Z,4.63
2022-10-29T14:45:24.612Z,5.35
2022-10-29T14:47:54.198Z,5.35
2022-10-29T14:50:24.016Z,5.13
2022-10-29T14:52:54.531Z,5.32
2022-10-29T14:55:26.712Z,4.95
2022-10-29T14:58:01.081Z,5.72
2022-10-29T15:00:30.189Z,4.90
2022-10-29T15:02:58.140Z,5.50
2022-10-29T15:05:27.561Z,5.05
2022-10-29T15:08:05.767Z,5.30
2022-10-29T15:10:45.848Z,4.90
2022-10-29T15:13:23.644Z,5.43
2022-10-29T15:15:57.132Z,5.43
2022-10-29T15:18:26.018Z,4.88
2022-10-29T15:20:54.730Z,5.70
2022-10-29T15:23:26.708Z,5.30
2022-10-29T15:25:59.583Z,5.47
2022-10-29T15:28:29.980Z,6.10
2022-10-29T15:30:57.459Z,5.90
2022-10-29T15:33:28.524Z,6.22
2022-10-29T15:35:59.481Z,5.97
2022-10-29T15:39:14.721Z,7.03
2022-10-29T15:41:48.980Z,6.72
2022-10-29T15:44:37.959Z,6.82
2022-10-29T15:47:21.237Z,7.65
2022-10-29T15:49:48.699Z,7.80
2022-10-29T15:52:18.747Z,7.85
2022-10-29T15:54:46.801Z,8.98
2022-10-29T15:57:16.245Z,8.93
2022-10-29T15:59:43.666Z,8.52
2022-10-29T16:02:11.973Z,9.13
2022-10-29T16:04:39.739Z,6.55
2022-10-29T16:07:08.989Z,6.45
2022-10-29T16:09:37.265Z,6.70
2022-10-29T16:12:04.665Z,7.55
2022-10-29T16:14:33.138Z,8.77
2022-10-29T16:17:00.039Z,8.45
2022-10-29T16:19:27.284Z,11.90
2022-10-29T16:21:59.667Z,11.00
2022-10-29T16:24:28.466Z,10.35
2022-10-29T16:26:55.549Z,10.13
2022-10-29T16:29:22.704Z,10.55
2022-10-29T16:31:50.934Z,11.77
2022-10-29T16:34:22.201Z,12.15
2022-10-29T16:36:51.519Z,11.98
2022-10-29T16:39:18.685Z,10.65
2022-10-29T16:41:45.652Z,12.30
2022-10-29T16:44:12.867Z,12.98
2022-10-29T16:46:39.685Z,12.18
2022-10-29T16:49:07.856Z,12.77
2022-10-29T16:51:34.689Z,11.40
2022-10-29T16:54:01.852Z,12.02
2022-10-29T16:56:28.687Z,11.10
2022-10-29T16:59:01.555Z,29.45
2022-10-29T17:01:29.131Z,23.30
2022-10-29T17:03:56.392Z,16.45
2022-10-29T17:06:24.597Z,19.85
2022-10-29T17:08:51.889Z,17.83
2022-10-29T17:11:19.751Z,19.35
2022-10-29T17:13:46.937Z,20.80
2022-10-29T17:16:15.030Z,18.10
2022-10-29T17:18:42.447Z,15.18
2022-10-29T17:21:09.300Z,15.10
2022-10-29T17:23:37.984Z,15.05
2022-10-29T17:26:05.256Z,11.85
2022-10-29T17:28:39.040Z,11.40
2022-10-29T17:31:06.680Z,9.88
2022-10-29T17:33:34.140Z,10.10
2022-10-29T17:36:01.910Z,9.25
2022-10-29T17:38:29.118Z,9.27
2022-10-29T17:40:57.350Z,8.70
2022-10-29T17:43:24.542Z,9.30
2022-10-29T17:45:51.672Z,9.02
2022-10-29T17:48:23.911Z,8.55
2022-10-29T17:50:52.844Z,8.20
2022-10-29T17:53:20.042Z,8.52
2022-10-29T17:55:46.950Z,9.80
2022-10-29T17:58:18.164Z,8.80
2022-10-29T18:00:45.908Z,9.07
2022-10-29T18:03:13.154Z,9.13
2022-10-29T18:05:40.149Z,11.05
2022-10-29T18:08:07.348Z,13.70
2022-10-29T18:10:34.958Z,15.27
2022-10-29T18:13:02.590Z,11.57
2022-10-29T18:15:30.892Z,10.15
2022-10-29T18:18:00.017Z,9.82
2022-10-29T18:20:26.891Z,11.20
2022-10-29T18:22:55.857Z,10.90
2022-10-29T18:25:23.148Z,11.73
2022-10-29T18:27:55.820Z,10.75
2022-10-29T18:30:22.911Z,11.55
2022-10-29T18:32:51.598Z,11.57
2022-10-29T18:35:18.512Z,12.65
2022-10-29T18:37:46.582Z,11.32
2022-10-29T18:40:13.521Z,11.30
2022-10-29T18:42:41.107Z,11.20
2022-10-29T18:45:09.461Z,11.95
2022-10-29T18:47:36.781Z,11.80
2022-10-29T18:50:05.838Z,13.55
2022-10-29T18:52:33.477Z,11.70
2022-10-29T18:55:00.388Z,12.40
2022-10-29T18:57:27.588Z,12.43
2022-10-29T18:59:54.512Z,12.40
2022-10-29T19:02:21.692Z,12.23
2022-10-29T19:04:48.979Z,12.65
2022-10-29T19:07:17.220Z,12.80
2022-10-29T19:09:44.071Z,12.73
2022-10-29T19:12:13.126Z,12.30
2022-10-29T19:14:40.026Z,13.32
2022-10-29T19:17:06.932Z,12.68
2022-10-29T19:19:33.881Z,13.80
2022-10-29T19:22:00.916Z,13.65
2022-10-29T19:24:29.323Z,12.80
2022-10-29T19:26:56.248Z,14.27
2022-10-29T19:29:23.423Z,12.85
2022-10-29T19:31:50.260Z,12.93
2022-10-29T19:34:17.253Z,12.70
2022-10-29T19:36:44.290Z,12.93
2022-10-29T19:39:11.202Z,12.13
2022-10-29T19:41:39.525Z,12.57
2022-10-29T19:44:06.695Z,13.20
2022-10-29T19:46:33.646Z,12.52
2022-10-29T19:49:01.619Z,12.85
2022-10-29T19:51:28.574Z,12.80
2022-10-29T19:53:57.910Z,12.32
2022-10-29T19:56:24.834Z,12.70
2022-10-29T19:58:53.352Z,13.07
2022-10-29T20:01:20.386Z,12.73
2022-10-29T20:03:47.493Z,12.00
2022-10-29T20:06:15.058Z,12.30
2022-10-29T20:08:42.615Z,12.38
2022-10-29T20:11:09.770Z,11.18
2022-10-29T20:13:38.125Z,11.73
2022-10-29T20:16:11.290Z,11.45
2022-10-29T20:18:38.630Z,11.93
2022-10-29T20:23:38.113Z,11.93
2022-10-29T20:26:05.649Z,11.98
2022-10-29T20:28:33.171Z,10.80
2022-10-29T20:31:30.086Z,11.38
2022-10-29T20:33:59.900Z,10.50
2022-10-29T20:36:29.597Z,11.05
2022-10-29T20:38:57.066Z,11.82
2022-10-29T20:41:24.014Z,10.23
2022-10-29T20:43:53.637Z,10.40
2022-10-29T20:46:21.102Z,10.80
2022-10-29T20:48:49.644Z,10.13
2022-10-29T20:51:17.199Z,10.93
2022-10-29T20:53:44.518Z,9.25
2022-10-29T20:56:15.010Z,10.50
2022-10-29T20:58:43.878Z,10.15
2022-10-29T21:01:13.003Z,10.07
2022-10-29T21:03:40.035Z,10.45
2022-10-29T21:06:15.686Z,11.13
2022-10-29T21:08:44.065Z,10.35
2022-10-29T21:11:12.752Z,10.25
2022-10-29T21:13:39.659Z,11.40
2022-10-29T21:16:08.176Z,10.70
2022-10-29T21:18:39.158Z,10.70
2022-10-29T21:21:06.642Z,10.40
2022-10-29T21:23:38.867Z,10.25
2022-10-29T21:26:06.823Z,11.23
2022-10-29T21:28:34.267Z,11.50
2022-10-29T21:31:01.112Z,12.07
2022-10-29T21:33:28.475Z,10.98
2022-10-29T21:35:56.829Z,11.57
2022-10-29T21:38:25.299Z,10.90
2022-10-29T21:40:53.854Z,11.70
2022-10-29T21:43:23.627Z,11.03
2022-10-29T21:45:51.732Z,11.27
2022-10-29T21:48:19.515Z,10.82
2022-10-29T21:50:46.419Z,10.18
2022-10-29T21:53:13.371Z,12.55
2022-10-29T21:55:40.352Z,12.40
2022-10-29T21:58:09.310Z,10.32
2022-10-29T22:00:36.263Z,12.00
2022-10-29T22:03:04.614Z,11.73
2022-10-29T22:05:31.879Z,13.50
2022-10-29T22:07:59.606Z,17.25
2022-10-29T22:10:26.738Z,11.60
2022-10-29T22:12:53.622Z,10.80
2022-10-29T22:15:21.865Z,10.57
2022-10-29T22:17:48.786Z,10.32
2022-10-29T22:20:15.827Z,10.48
2022-10-29T22:22:43.952Z,10.68
2022-10-29T22:25:11.108Z,10.60
2022-10-29T22:27:38.503Z,10.13
2022-10-29T22:30:06.220Z,11.23
2022-10-29T22:32:34.693Z,9.75
2022-10-29T22:35:01.501Z,10.07
2022-10-29T22:37:28.482Z,9.55
2022-10-29T22:39:55.302Z,9.95
2022-10-29T22:42:22.165Z,10.15
2022-10-29T22:44:49.090Z,10.20
2022-10-29T22:47:16.431Z,9.75
2022-10-29T22:49:44.731Z,9.15
2022-10-29T22:52:11.636Z,9.03
2022-10-29T22:54:38.526Z,8.32
2022-10-29T22:57:05.454Z,8.57
2022-10-29T22:59:32.313Z,9.75
2022-10-29T23:01:59.716Z,8.40
2022-10-29T23:04:26.872Z,7.22
2022-10-29T23:07:00.778Z,8.80
2022-10-29T23:09:28.931Z,8.07
2022-10-29T23:11:56.405Z,9.95
2022-10-29T23:14:23.354Z,8.73
2022-10-29T23:16:50.265Z,9.60
2022-10-29T23:19:17.192Z,9.80
2022-10-29T23:21:44.083Z,9.40
2022-10-29T23:24:12.267Z,8.87
2022-10-29T23:26:39.570Z,8.70
2022-10-29T23:29:06.419Z,9.27
2022-10-29T23:31:33.327Z,9.05
2022-10-29T23:34:00.189Z,9.63
2022-10-29T23:36:28.218Z,9.37
2022-10-29T23:38:55.809Z,9.50
2022-10-29T23:41:24.483Z,9.57
2022-10-29T23:43:51.462Z,8.97
2022-10-29T23:46:18.494Z,9.87
2022-10-29T23:48:45.475Z,9.27
2022-10-29T23:51:12.454Z,9.03
2022-10-29T23:53:39.402Z,10.23
2022-10-29T23:56:07.062Z,9.10
2022-10-29T23:58:35.423Z,9.47
